FYLZ/LUD METAR and TAF weather

Enter ICAO airport designator
Station Type Date Time Source
FYLZ METAR 2021/10/22 19:00 UTC NOAA

FYLZ 221900Z AUTO 02005KT //// // ////// 14/12 Q1016


Station Type Date Time Source
FYLZ Decoded METAR 2021/10/22 19:00 UTC NOAA

Luderitz / Diaz Point, Namibia (FYLZ) 26-41S 015-15E
Oct 22, 2021 - 03:00 PM EDT / 2021.10.22 1900 UTC
Wind: from the NNE (020 degrees) at 6 MPH (5 KT):0
Temperature: 57 F (14 C)
Dew Point: 53 F (12 C)
Relative Humidity: 87%
Pressure (altimeter): 30.00 in. Hg (1016 hPa)
ob: FYLZ 221900Z AUTO 02005KT //// // ////// 14/12 Q1016
cycle: 19

Station Type Date Time Source
FYLZ TAF 2014/11/15 15:19 UTC NOAA

TAF FYLZ 151400Z 1515/1524 18015G28KT CAVOK
BECMG 1518/1520 16020KT

Example: see airport list